Time;durP1;ratioP1;P1;durP2;ratioP2;P2;SDS_P1;SDS_P2;PMS_P1;PMS_P2;Temp;Humidity;BMP_temperature;BMP_pressure;BME280_temperature;BME280_humidity;BME280_pressure;Samples;Min_cycle;Max_cycle;Signal;HPM_P1;HPM_P2
2021/08/29 00:02:05;;;;;;;;;8.00;6.00;;;;;22.70;46.55;101727.41;5058581;28;45565;-51
2021/08/29 00:04:32;;;;;;;;;9.00;8.00;;;;;22.70;46.29;101715.97;5058765;28;45295;-49
2021/08/29 00:06:57;;;;;;;;;4.00;4.00;;;;;22.69;46.34;101714.25;5059216;28;45595;-49
2021/08/29 00:09:22;;;;;;;;;7.75;6.00;;;;;22.69;46.17;101703.69;5058761;28;47877;-52
2021/08/29 00:11:48;;;;;;;;;9.00;5.50;;;;;22.68;46.42;101696.69;5058804;28;48830;-48
2021/08/29 00:14:13;;;;;;;;;10.00;7.00;;;;;22.68;46.30;101696.69;5058632;28;45186;-50
2021/08/29 00:16:38;;;;;;;;;4.00;3.50;;;;;22.68;46.33;101694.06;5040969;28;45613;-51
2021/08/29 00:19:04;;;;;;;;;4.00;4.00;;;;;22.69;46.28;101698.41;5058499;28;45468;-52
2021/08/29 00:21:29;;;;;;;;;7.75;6.50;;;;;22.68;46.10;101696.69;5058319;28;45402;-50
2021/08/29 00:23:55;;;;;;;;;6.50;6.50;;;;;22.67;46.30;101694.97;5058501;28;45320;-48
2021/08/29 00:26:20;;;;;;;;;6.50;4.75;;;;;22.68;46.28;101694.06;5059063;28;45271;-48
2021/08/29 00:28:45;;;;;;;;;4.25;4.25;;;;;22.68;46.29;101701.97;5058153;28;45360;-45
2021/08/29 00:31:11;;;;;;;;;6.75;6.75;;;;;22.66;46.50;101696.78;5058529;28;45190;-48
2021/08/29 00:33:36;;;;;;;;;8.25;5.75;;;;;22.66;46.31;101688.84;5058468;28;45352;-49
2021/08/29 00:36:02;;;;;;;;;4.00;4.00;;;;;22.65;46.34;101692.44;5058526;28;45226;-48
2021/08/29 00:38:27;;;;;;;;;7.00;6.00;;;;;22.65;46.39;101697.72;5058276;28;46778;-50
2021/08/29 00:40:53;;;;;;;;;6.00;4.00;;;;;22.65;46.16;101691.59;5058197;28;45364;-50
2021/08/29 00:43:20;;;;;;;;;3.75;2.25;;;;;22.66;46.35;101693.28;5058481;28;45341;-48
2021/08/29 00:45:46;;;;;;;;;4.00;4.00;;;;;22.67;46.28;101697.63;5058571;28;45265;-48
2021/08/29 00:48:12;;;;;;;;;7.00;6.00;;;;;22.65;46.50;101699.50;5057919;28;45374;-49
2021/08/29 00:50:38;;;;;;;;;8.00;5.00;;;;;22.65;46.38;101696.88;5057940;28;46002;-49
2021/08/29 00:53:06;;;;;;;;;7.25;6.25;;;;;22.65;46.05;101691.59;5058147;28;45413;-51
2021/08/29 00:55:31;;;;;;;;;5.25;5.25;;;;;22.63;46.33;101672.31;5058280;28;45497;-48
2021/08/29 00:57:57;;;;;;;;;5.00;5.00;;;;;22.64;46.36;101689.88;5057690;28;46472;-51
2021/08/29 01:00:22;;;;;;;;;7.25;4.50;;;;;22.62;46.26;101674.09;5057051;28;45246;-52
2021/08/29 01:02:48;;;;;;;;;4.00;4.00;;;;;22.64;46.22;101684.59;5057804;28;45391;-52
2021/08/29 01:05:28;;;;;;;;;5.00;5.00;;;;;22.64;46.58;101681.94;5040063;28;45465;-52
2021/08/29 01:08:03;;;;;;;;;5.00;5.00;;;;;22.62;46.30;101682.00;5058022;28;46463;-50
2021/08/29 01:10:36;;;;;;;;;4.25;4.25;;;;;22.62;46.26;101689.94;5057918;28;45852;-52
2021/08/29 01:13:02;;;;;;;;;3.00;3.00;;;;;22.62;46.54;101684.66;5057850;28;45354;-52
2021/08/29 01:15:30;;;;;;;;;3.00;3.00;;;;;22.61;46.46;101687.38;5057960;28;45529;-51
2021/08/29 01:17:57;;;;;;;;;4.75;4.75;;;;;22.60;46.52;101680.38;5057639;28;45260;-49
2021/08/29 01:20:56;;;;;;;;;7.00;4.50;;;;;22.60;46.61;101683.88;5057987;28;45490;-52
2021/08/29 01:23:23;;;;;;;;;5.50;5.50;;;;;22.59;46.59;101681.31;5057921;28;45353;-52
2021/08/29 01:25:59;;;;;;;;;6.00;5.25;;;;;22.59;46.39;101679.53;5058064;28;46132;-49
2021/08/29 01:28:42;;;;;;;;;5.00;4.50;;;;;22.59;46.47;101670.75;5057656;28;46302;-50
2021/08/29 01:31:08;;;;;;;;;4.00;4.00;;;;;22.58;46.58;101680.47;5057464;28;45415;-48
2021/08/29 01:33:33;;;;;;;;;4.75;4.75;;;;;22.58;46.58;101679.59;5057459;28;45411;-50
2021/08/29 01:35:59;;;;;;;;;8.50;6.00;;;;;22.59;46.55;101681.31;5057530;28;45331;-50
2021/08/29 01:38:24;;;;;;;;;8.00;5.25;;;;;22.58;46.51;101679.59;5057396;28;45475;-50
2021/08/29 01:40:51;;;;;;;;;5.25;4.25;;;;;22.57;46.63;101678.75;5057376;28;45412;-48
2021/08/29 01:43:17;;;;;;;;;8.00;5.75;;;;;22.57;46.49;101677.88;5057188;28;45323;-51
2021/08/29 01:45:43;;;;;;;;;6.25;5.50;;;;;22.59;46.67;101678.69;5057319;28;45313;-49
2021/08/29 01:48:08;;;;;;;;;6.50;5.00;;;;;22.60;46.47;101680.38;5056907;28;46279;-49
2021/08/29 01:50:34;;;;;;;;;8.00;6.50;;;;;22.59;46.28;101679.53;5057055;28;45371;-48
2021/08/29 01:52:59;;;;;;;;;4.25;4.25;;;;;22.58;46.37;101677.84;5039161;28;45422;-51
2021/08/29 01:55:24;;;;;;;;;6.00;4.25;;;;;22.58;46.60;101679.59;5057580;28;45307;-50
2021/08/29 01:57:50;;;;;;;;;7.25;4.25;;;;;22.58;46.45;101676.97;5056840;28;50433;-49
2021/08/29 02:00:16;;;;;;;;;5.00;5.00;;;;;22.57;46.48;101683.19;5056601;28;45377;-51
2021/08/29 02:02:42;;;;;;;;;5.50;5.50;;;;;22.58;46.46;101688.41;5056926;28;45363;-52
2021/08/29 02:05:08;;;;;;;;;5.00;5.00;;;;;22.56;46.38;101679.69;5057214;28;45653;-52
2021/08/29 02:07:57;;;;;;;;;5.50;5.00;;;;;22.57;46.72;101691.97;5056804;28;46564;-49
2021/08/29 02:10:24;;;;;;;;;4.00;4.00;;;;;22.56;46.63;101690.25;5057027;28;45749;-52
2021/08/29 02:12:55;;;;;;;;;5.00;3.25;;;;;22.57;46.55;101688.47;5056750;28;45341;-50
2021/08/29 02:15:28;;;;;;;;;9.00;4.50;;;;;22.55;46.46;101686.75;5057196;28;45182;-51
2021/08/29 02:17:54;;;;;;;;;4.50;4.50;;;;;22.56;46.71;101695.53;5056805;28;46401;-49
2021/08/29 02:20:23;;;;;;;;;5.50;5.00;;;;;22.56;46.59;101692.91;5056682;28;45305;-52
2021/08/29 02:22:51;;;;;;;;;6.25;6.25;;;;;22.55;46.61;101689.38;5056144;28;45294;-51
2021/08/29 02:25:16;;;;;;;;;5.25;5.25;;;;;22.56;46.66;101695.53;5056815;28;45470;-50
2021/08/29 02:27:42;;;;;;;;;4.50;4.00;;;;;22.55;46.68;101692.03;5056294;28;45377;-53
2021/08/29 02:30:09;;;;;;;;;7.00;6.00;;;;;22.57;46.68;101696.38;5056610;28;45328;-49
2021/08/29 02:32:36;;;;;;;;;8.50;6.75;;;;;22.55;47.07;101702.59;5056715;28;45397;-53
2021/08/29 02:35:04;;;;;;;;;9.00;6.00;;;;;22.55;47.10;101699.97;5056855;28;45535;-50
2021/08/29 02:37:31;;;;;;;;;5.75;5.00;;;;;22.55;46.75;101692.03;5056280;28;45333;-49
2021/08/29 02:39:58;;;;;;;;;7.25;5.50;;;;;22.53;46.76;101693.91;5056764;28;45410;-52
2021/08/29 02:42:25;;;;;;;;;7.25;4.00;;;;;22.52;46.68;101697.50;5056765;28;45771;-51
2021/08/29 02:44:51;;;;;;;;;6.00;6.00;;;;;22.52;46.94;101697.50;5056615;28;45322;-50
2021/08/29 02:47:17;;;;;;;;;5.50;4.75;;;;;22.53;46.76;101698.34;5056350;28;46327;-49
2021/08/29 02:49:43;;;;;;;;;9.00;6.50;;;;;22.53;46.78;101695.69;5056197;28;45838;-49
2021/08/29 02:52:09;;;;;;;;;6.50;5.50;;;;;22.53;47.03;101693.91;5056268;28;45450;-52
2021/08/29 02:54:39;;;;;;;;;9.75;6.75;;;;;22.52;46.75;101692.22;5056383;28;45485;-51
2021/08/29 02:57:06;;;;;;;;;5.75;5.75;;;;;22.52;46.78;101689.56;5056376;28;45501;-52
2021/08/29 02:59:32;;;;;;;;;9.25;6.00;;;;;22.52;46.79;101688.69;5056145;28;45347;-50
2021/08/29 03:01:57;;;;;;;;;5.00;5.00;;;;;22.52;46.79;101692.22;5056645;28;45314;-51
2021/08/29 03:04:23;;;;;;;;;4.25;4.25;;;;;22.52;46.74;101692.22;5056304;28;45462;-49
2021/08/29 03:06:48;;;;;;;;;5.25;5.25;;;;;22.52;46.73;101683.41;5055957;28;45413;-47
2021/08/29 03:09:14;;;;;;;;;9.50;6.75;;;;;22.52;46.74;101692.22;5055768;28;45440;-46
2021/08/29 03:11:39;;;;;;;;;7.75;7.75;;;;;22.52;46.76;101692.22;5056102;28;45452;-48
2021/08/29 03:14:06;;;;;;;;;6.00;5.25;;;;;22.51;46.81;101685.22;5056335;28;45629;-51
2021/08/29 03:16:31;;;;;;;;;7.25;6.75;;;;;22.53;46.55;101690.41;5056021;28;46705;-49
2021/08/29 03:18:59;;;;;;;;;5.25;5.25;;;;;22.51;46.83;101682.56;5038256;28;45465;-48
2021/08/29 03:21:25;;;;;;;;;6.00;6.00;;;;;22.52;46.74;101692.22;5055876;28;45183;-50
2021/08/29 03:23:50;;;;;;;;;6.00;5.75;;;;;22.51;46.76;101682.56;5058693;28;46185;-51
2021/08/29 03:26:16;;;;;;;;;7.25;7.25;;;;;22.51;46.85;101684.34;5059336;28;45467;-51
2021/08/29 03:28:41;;;;;;;;;6.00;6.00;;;;;22.50;46.91;101679.97;5058007;28;45488;-51
2021/08/29 03:31:07;;;;;;;;;5.75;5.50;;;;;22.50;46.70;101674.69;5059382;28;45325;-51
2021/08/29 03:33:34;;;;;;;;;8.25;8.25;;;;;22.49;46.76;101681.78;5059447;28;45577;-49
2021/08/29 03:36:00;;;;;;;;;8.00;5.75;;;;;22.48;46.71;101674.78;5059375;28;46102;-51
2021/08/29 03:38:28;;;;;;;;;8.25;7.00;;;;;22.49;46.92;101675.66;5059101;28;45453;-49
2021/08/29 03:40:56;;;;;;;;;8.25;8.25;;;;;22.48;46.99;101666.88;5059170;28;45340;-50
2021/08/29 03:43:21;;;;;;;;;6.00;6.00;;;;;22.48;46.98;101672.16;5059433;28;45810;-47
2021/08/29 03:45:47;;;;;;;;;9.75;8.50;;;;;22.49;46.71;101665.09;5040944;28;46329;-49
2021/08/29 03:48:13;;;;;;;;;6.75;6.75;;;;;22.49;46.73;101665.94;5040863;28;46232;-51
2021/08/29 03:50:38;;;;;;;;;8.00;6.25;;;;;22.48;46.87;101663.38;5058228;28;45360;-52
2021/08/29 03:53:04;;;;;;;;;6.00;5.25;;;;;22.48;47.13;101666.03;5041344;28;45332;-53
2021/08/29 03:55:30;;;;;;;;;8.25;8.00;;;;;22.47;46.97;101666.97;5059322;28;46363;-51
2021/08/29 03:57:56;;;;;;;;;5.75;5.00;;;;;22.46;47.20;101655.53;5058359;28;45351;-53
2021/08/29 04:00:23;;;;;;;;;4.50;4.50;;;;;22.44;47.09;101657.38;5058617;28;45387;-51
2021/08/29 04:02:48;;;;;;;;;9.50;7.50;;;;;22.44;47.21;101662.66;5059268;28;45183;-52
2021/08/29 04:05:14;;;;;;;;;9.00;7.75;;;;;22.43;47.11;101660.09;5058789;28;45368;-52
2021/08/29 04:07:41;;;;;;;;;10.25;8.25;;;;;22.44;46.93;101667.94;5058587;28;45273;-49
2021/08/29 04:10:08;;;;;;;;;7.75;6.25;;;;;22.45;46.73;101671.47;5058847;28;45273;-52
2021/08/29 04:12:33;;;;;;;;;7.25;6.50;;;;;22.45;47.07;101667.00;5059045;28;45567;-50
2021/08/29 04:14:59;;;;;;;;;9.25;7.00;;;;;22.45;47.10;101668.81;5058785;28;46267;-52
2021/08/29 04:17:25;;;;;;;;;7.00;6.00;;;;;22.46;47.25;101670.53;5058522;28;45308;-52
2021/08/29 04:19:52;;;;;;;;;7.00;7.00;;;;;22.44;46.99;101664.47;5058503;28;45351;-51
2021/08/29 04:22:17;;;;;;;;;11.75;9.00;;;;;22.44;46.94;101664.47;5058726;28;45447;-51
2021/08/29 04:24:43;;;;;;;;;7.50;6.75;;;;;22.45;47.13;101663.53;5058253;28;45376;-51
2021/08/29 04:27:09;;;;;;;;;7.25;6.75;;;;;22.43;47.16;101660.97;5058677;28;45316;-50
2021/08/29 04:29:35;;;;;;;;;6.25;5.75;;;;;22.44;47.02;101667.09;5040414;28;45384;-50
2021/08/29 04:32:02;;;;;;;;;7.50;6.50;;;;;22.44;47.02;101669.75;5059122;28;45501;-53
2021/08/29 04:34:27;;;;;;;;;6.00;6.00;;;;;22.42;47.01;101667.19;5057958;28;46378;-51
2021/08/29 04:36:52;;;;;;;;;7.50;7.50;;;;;22.43;47.22;101668.91;5058363;28;45232;-51
2021/08/29 04:39:18;;;;;;;;;7.00;6.00;;;;;22.42;47.09;101672.47;5058520;28;45399;-52
2021/08/29 04:41:43;;;;;;;;;9.25;6.25;;;;;22.41;47.07;101661.97;5058334;28;45526;-52
2021/08/29 04:44:11;;;;;;;;;6.75;6.75;;;;;22.42;46.98;101667.19;5058085;28;46149;-52
2021/08/29 04:46:37;;;;;;;;;7.50;7.50;;;;;22.41;47.02;101660.19;5058095;28;45414;-53
2021/08/29 04:49:02;;;;;;;;;7.50;6.75;;;;;22.42;47.14;101668.97;5058408;28;45340;-49
2021/08/29 04:51:29;;;;;;;;;5.25;5.00;;;;;22.41;46.94;101670.75;5058307;28;45425;-52
2021/08/29 04:53:55;;;;;;;;;8.00;7.00;;;;;22.41;47.21;101669.88;5057930;28;47148;-51
2021/08/29 04:56:21;;;;;;;;;6.75;5.00;;;;;22.38;47.23;101663.78;5039924;28;45327;-53
2021/08/29 04:58:46;;;;;;;;;9.50;8.00;;;;;22.38;47.24;101673.50;5057829;28;45230;-53
2021/08/29 05:01:12;;;;;;;;;7.75;7.00;;;;;22.39;46.85;101676.06;5058356;28;45338;-52
2021/08/29 05:03:37;;;;;;;;;6.75;6.25;;;;;22.40;47.22;101676.94;5057744;28;45985;-53
2021/08/29 05:06:03;;;;;;;;;5.75;5.75;;;;;22.39;47.06;101669.94;5058106;28;45296;-52
2021/08/29 05:08:28;;;;;;;;;7.75;7.75;;;;;22.38;47.07;101676.16;5058082;28;45335;-51
2021/08/29 05:10:53;;;;;;;;;6.25;6.00;;;;;22.38;47.00;101678.78;5058023;28;45452;-52
2021/08/29 05:13:19;;;;;;;;;10.50;8.75;;;;;22.37;46.84;101672.69;5057582;28;46197;-52
2021/08/29 05:15:44;;;;;;;;;5.75;5.75;;;;;22.37;47.10;101672.69;5057588;28;45470;-49
2021/08/29 05:18:10;;;;;;;;;6.00;5.25;;;;;22.39;47.10;101680.50;5057542;28;45242;-53
2021/08/29 05:20:35;;;;;;;;;6.75;5.50;;;;;22.36;47.21;101680.66;5058418;28;45660;-54
2021/08/29 05:23:01;;;;;;;;;8.50;7.00;;;;;22.35;46.91;101677.16;5039198;28;49775;-53
2021/08/29 05:25:26;;;;;;;;;11.50;7.50;;;;;22.35;47.42;101685.09;5057474;28;45916;-50
2021/08/29 05:27:52;;;;;;;;;9.00;7.00;;;;;22.36;47.83;101685.94;5057678;28;45367;-51
2021/08/29 05:30:18;;;;;;;;;8.75;7.00;;;;;22.34;47.42;101686.03;5056484;28;45414;-52
2021/08/29 05:32:43;;;;;;;;;7.50;7.50;;;;;22.34;47.46;101687.78;5057199;28;45397;-53
2021/08/29 05:35:09;;;;;;;;;9.25;5.00;;;;;22.31;47.77;101688.81;5057292;28;45352;-51
2021/08/29 05:37:34;;;;;;;;;9.25;6.25;;;;;22.30;47.64;101686.25;5057711;28;45340;-50
2021/08/29 05:40:00;;;;;;;;;6.25;6.00;;;;;22.32;47.69;101690.53;5057448;28;45654;-52
2021/08/29 05:42:25;;;;;;;;;7.25;7.00;;;;;22.32;47.42;101694.97;5056997;28;46313;-52
2021/08/29 05:44:50;;;;;;;;;7.75;7.25;;;;;22.33;47.71;101694.00;5056827;28;45359;-53
2021/08/29 05:47:16;;;;;;;;;7.25;6.00;;;;;22.31;47.67;101686.16;5056856;28;45293;-54
2021/08/29 05:49:41;;;;;;;;;7.00;7.00;;;;;22.32;47.62;101685.25;5057312;28;45567;-53
2021/08/29 05:52:07;;;;;;;;;8.50;6.25;;;;;22.32;47.50;101682.59;5057516;28;45354;-52
2021/08/29 05:54:32;;;;;;;;;7.75;5.25;;;;;22.34;47.51;101682.50;5057369;28;45380;-54
2021/08/29 05:56:57;;;;;;;;;6.25;6.25;;;;;22.33;47.39;101681.66;5057298;28;45237;-53
2021/08/29 05:59:23;;;;;;;;;8.50;6.75;;;;;22.33;47.47;101680.78;5057126;28;45177;-52
2021/08/29 06:01:48;;;;;;;;;6.00;6.00;;;;;22.33;47.72;101681.66;5038811;28;47495;-52
2021/08/29 06:04:13;;;;;;;;;7.00;7.00;;;;;22.35;47.42;101681.59;5056698;28;45333;-54
2021/08/29 06:06:39;;;;;;;;;8.00;6.50;;;;;22.34;47.35;101672.81;5057027;28;45275;-51
2021/08/29 06:09:04;;;;;;;;;8.25;8.25;;;;;22.33;47.34;101671.09;5057459;28;45289;-53
2021/08/29 06:11:29;;;;;;;;;7.75;7.25;;;;;22.34;47.44;101678.09;5056918;28;46250;-53
2021/08/29 06:13:58;;;;;;;;;7.25;7.25;;;;;22.33;47.38;101671.09;5056794;28;45453;-53
2021/08/29 06:16:24;;;;;;;;;6.50;6.00;;;;;22.34;47.34;101675.47;5057165;28;45904;-51
2021/08/29 06:18:49;;;;;;;;;8.00;8.00;;;;;22.33;47.33;101675.50;5056881;28;45402;-51
2021/08/29 06:21:15;;;;;;;;;7.00;7.00;;;;;22.34;47.42;101677.22;5056566;28;45476;-52
2021/08/29 06:23:40;;;;;;;;;5.00;5.00;;;;;22.34;47.47;101679.88;5056656;28;45368;-48
2021/08/29 06:26:06;;;;;;;;;6.25;6.00;;;;;22.34;47.41;101680.75;5057054;28;45214;-53
2021/08/29 06:28:31;;;;;;;;;9.25;8.00;;;;;22.33;47.40;101679.03;5057039;28;45507;-49
2021/08/29 06:30:56;;;;;;;;;7.00;5.50;;;;;22.34;47.37;101686.03;5056634;28;45234;-51
2021/08/29 06:33:22;;;;;;;;;9.75;7.50;;;;;22.33;47.45;101681.66;5056456;28;45394;-50
2021/08/29 06:35:47;;;;;;;;;8.75;7.00;;;;;22.33;47.66;101686.09;5056639;28;45381;-52
2021/08/29 06:38:12;;;;;;;;;6.25;6.00;;;;;22.35;47.54;101684.22;5038270;28;47684;-53
2021/08/29 06:40:37;;;;;;;;;10.00;7.75;;;;;22.34;47.51;101683.38;5056562;28;46298;-52
2021/08/29 06:43:03;;;;;;;;;6.00;6.00;;;;;22.35;47.51;101684.22;5055283;28;45792;-48
2021/08/29 06:45:28;;;;;;;;;10.00;7.00;;;;;22.35;47.44;101694.78;5056565;28;45269;-53
2021/08/29 06:47:54;;;;;;;;;8.50;7.00;;;;;22.35;47.58;101685.09;5056441;28;45227;-52
2021/08/29 06:50:19;;;;;;;;;6.75;6.25;;;;;22.34;47.42;101691.31;5056182;28;46230;-53
2021/08/29 06:52:44;;;;;;;;;6.75;6.25;;;;;22.34;47.29;101699.22;5056353;28;45517;-55
2021/08/29 06:55:10;;;;;;;;;8.75;6.50;;;;;22.34;47.49;101698.34;5038696;28;45453;-54
2021/08/29 06:57:35;;;;;;;;;2.25;2.00;;;;;22.34;47.61;101693.06;5057539;28;45332;-52
2021/08/29 07:00:01;;;;;;;;;8.00;5.00;;;;;22.34;47.51;101693.94;5059533;28;45360;-52
2021/08/29 07:02:28;;;;;;;;;7.00;7.00;;;;;22.35;47.78;101694.78;5059763;28;45356;-52
2021/08/29 07:04:54;;;;;;;;;7.00;5.75;;;;;22.35;47.41;101697.44;5059866;28;45377;-50
2021/08/29 07:07:19;;;;;;;;;4.00;4.00;;;;;22.34;47.44;101685.16;5060006;28;45566;-50
2021/08/29 07:09:44;;;;;;;;;4.50;4.00;;;;;22.33;47.60;101683.44;5041619;28;47482;-50
2021/08/29 07:12:10;;;;;;;;;3.00;3.00;;;;;22.34;47.47;101691.31;5059843;28;45293;-50
2021/08/29 07:14:36;;;;;;;;;7.50;4.00;;;;;22.33;47.36;101691.38;5059865;28;45384;-50
2021/08/29 07:17:02;;;;;;;;;6.25;5.25;;;;;22.34;47.48;101693.06;5059785;28;45463;-51
2021/08/29 07:19:28;;;;;;;;;7.25;5.25;;;;;22.32;47.52;101695.81;5059444;28;46229;-53
2021/08/29 07:21:53;;;;;;;;;5.00;5.00;;;;;22.30;47.51;101680.97;5059443;28;45612;-54
2021/08/29 07:24:18;;;;;;;;;5.25;5.25;;;;;22.33;47.66;101696.66;5059561;28;45343;-48
2021/08/29 07:26:44;;;;;;;;;6.00;4.75;;;;;22.33;47.17;101691.38;5058553;28;45568;-54
2021/08/29 07:29:09;;;;;;;;;5.50;4.25;;;;;22.31;47.47;101683.53;5059724;28;45409;-49
2021/08/29 07:31:35;;;;;;;;;6.75;5.50;;;;;22.32;47.50;101690.53;5059181;28;45396;-52
2021/08/29 07:34:00;;;;;;;;;5.00;5.00;;;;;22.32;47.32;101694.97;5059315;28;45444;-54
2021/08/29 07:36:25;;;;;;;;;5.75;4.50;;;;;22.30;47.51;101692.38;5059273;28;45494;-51
2021/08/29 07:38:51;;;;;;;;;4.25;3.75;;;;;22.30;47.54;101694.19;5059196;28;46343;-53
2021/08/29 07:41:16;;;;;;;;;5.25;4.25;;;;;22.31;47.63;101693.25;5041196;28;45423;-52
2021/08/29 07:43:42;;;;;;;;;5.25;4.50;;;;;22.29;47.46;101697.75;5059512;28;45297;-53
2021/08/29 07:46:07;;;;;;;;;5.00;4.25;;;;;22.29;47.84;101700.38;5059268;28;45660;-51
2021/08/29 07:48:33;;;;;;;;;6.25;5.00;;;;;22.28;47.66;101698.69;5058981;28;47001;-54
2021/08/29 07:50:58;;;;;;;;;11.25;5.00;;;;;22.29;47.43;101700.38;5059226;28;45415;-53
2021/08/29 07:53:23;;;;;;;;;8.50;5.00;;;;;22.28;47.35;101698.69;5059353;28;45162;-54
2021/08/29 07:55:49;;;;;;;;;7.25;6.00;;;;;22.28;47.52;101698.69;5059343;28;45257;-53
2021/08/29 07:58:14;;;;;;;;;3.00;3.00;;;;;22.28;47.62;101696.88;5058708;28;45636;-51
2021/08/29 08:00:39;;;;;;;;;6.50;4.75;;;;;22.28;47.55;101711.88;5059273;28;45237;-52
2021/08/29 08:03:05;;;;;;;;;7.50;4.00;;;;;22.28;47.13;101709.25;5058870;28;45235;-54
2021/08/29 08:05:30;;;;;;;;;7.75;7.25;;;;;22.28;47.59;101710.06;5059132;28;45519;-53
2021/08/29 08:07:55;;;;;;;;;5.25;5.00;;;;;22.26;47.59;101706.69;5058607;28;45484;-54
2021/08/29 08:10:23;;;;;;;;;6.50;5.00;;;;;22.26;47.49;101705.81;5058360;28;45278;-50
2021/08/29 08:12:48;;;;;;;;;5.50;5.00;;;;;22.24;47.67;101704.09;5058737;28;45411;-49
2021/08/29 08:15:14;;;;;;;;;6.75;6.00;;;;;22.24;47.31;101703.25;5058938;28;45447;-46
2021/08/29 08:17:40;;;;;;;;;7.50;7.00;;;;;22.22;47.53;101703.31;5058955;28;46198;-49
2021/08/29 08:20:07;;;;;;;;;5.75;5.75;;;;;22.20;47.52;101702.56;5058624;28;45379;-50
2021/08/29 08:22:33;;;;;;;;;6.00;6.00;;;;;22.19;47.47;101695.56;5058626;28;45419;-50
2021/08/29 08:24:58;;;;;;;;;6.50;6.00;;;;;22.18;47.41;101696.50;5058346;28;45576;-47
2021/08/29 08:27:24;;;;;;;;;6.50;6.00;;;;;22.17;47.54;101692.13;5058690;28;45379;-48
2021/08/29 08:29:49;;;;;;;;;8.00;7.00;;;;;22.16;47.43;101686.94;5058515;28;45319;-47
2021/08/29 08:32:14;;;;;;;;;7.75;7.75;;;;;22.14;47.60;101692.28;5058724;28;45232;-47
2021/08/29 08:34:40;;;;;;;;;5.00;5.00;;;;;22.15;47.39;101693.16;5059136;28;45566;-47
2021/08/29 08:37:05;;;;;;;;;10.75;6.25;;;;;22.13;47.24;101701.13;5058219;28;45323;-47
2021/08/29 08:39:30;;;;;;;;;6.50;6.50;;;;;22.12;47.41;101704.69;5058192;28;45339;-47
2021/08/29 08:41:56;;;;;;;;;5.00;5.00;;;;;22.11;47.43;101704.78;5058145;28;47061;-47
2021/08/29 08:44:21;;;;;;;;;7.25;6.75;;;;;22.10;47.45;101711.84;5058609;28;45674;-47
2021/08/29 08:46:46;;;;;;;;;5.50;5.50;;;;;22.08;47.38;101703.16;5058150;28;46584;-50
2021/08/29 08:49:16;;;;;;;;;7.25;7.00;;;;;22.09;47.55;101694.31;5058370;28;45337;-48
2021/08/29 08:51:47;;;;;;;;;7.00;7.00;;;;;22.08;47.57;101703.16;5058770;28;45429;-48
2021/08/29 08:54:16;;;;;;;;;7.00;6.00;;;;;22.09;47.43;101699.59;5058642;28;45409;-49
2021/08/29 08:56:42;;;;;;;;;8.75;7.50;;;;;22.08;47.57;101701.34;5058216;28;45740;-49
2021/08/29 08:59:08;;;;;;;;;6.50;5.00;;;;;22.09;47.26;101699.59;5057937;28;45387;-54
2021/08/29 09:01:33;;;;;;;;;6.75;5.75;;;;;22.07;47.57;101704.06;5058042;28;45270;-51
2021/08/29 09:03:59;;;;;;;;;7.00;5.75;;;;;22.08;47.31;101701.34;5058111;28;45206;-52
2021/08/29 09:06:25;;;;;;;;;3.25;3.00;;;;;22.06;47.17;101699.72;5057750;28;45343;-47
2021/08/29 09:08:50;;;;;;;;;6.50;5.50;;;;;22.08;47.63;101703.16;5057652;28;45394;-49
2021/08/29 09:11:15;;;;;;;;;5.00;5.00;;;;;22.06;47.28;101700.56;5058260;28;45399;-51
2021/08/29 09:13:47;;;;;;;;;5.00;3.00;;;;;22.09;47.47;101699.59;5057959;28;45416;-47
2021/08/29 09:16:17;;;;;;;;;7.25;5.00;;;;;22.08;47.29;101704.00;5058222;28;46401;-52
2021/08/29 09:18:56;;;;;;;;;6.00;4.25;;;;;22.09;47.21;101700.41;5057987;28;45260;-50
2021/08/29 09:21:28;;;;;;;;;5.00;3.25;;;;;22.10;47.23;101696.00;5056767;28;45371;-49
2021/08/29 09:23:56;;;;;;;;;5.50;5.50;;;;;22.09;47.28;101695.16;5039656;28;45443;-48
2021/08/29 09:26:24;;;;;;;;;5.75;4.00;;;;;22.10;47.23;101696.00;5057249;28;46445;-48
2021/08/29 09:28:53;;;;;;;;;5.75;5.75;;;;;22.09;47.16;101697.78;5057472;28;45361;-52
2021/08/29 09:31:19;;;;;;;;;5.00;5.00;;;;;22.09;47.37;101695.16;5057565;28;45346;-50
2021/08/29 09:34:01;;;;;;;;;5.00;5.00;;;;;22.06;47.35;101689.16;5057912;28;45324;-46
2021/08/29 09:36:33;;;;;;;;;5.00;5.00;;;;;22.11;47.31;101697.69;5057269;28;45725;-48
2021/08/29 09:39:13;;;;;;;;;4.75;4.00;;;;;22.09;47.32;101689.88;5039248;28;46280;-48
2021/08/29 09:41:40;;;;;;;;;6.50;5.00;;;;;22.09;47.27;101686.38;5057446;28;45450;-48
2021/08/29 09:44:10;;;;;;;;;6.25;3.50;;;;;22.10;47.10;101685.47;5057623;28;45421;-46
2021/08/29 09:47:02;;;;;;;;;5.25;4.25;;;;;22.09;47.07;101687.22;5057177;28;45745;-46
2021/08/29 09:49:34;;;;;;;;;6.75;5.00;;;;;22.12;47.09;101688.84;5057091;28;45724;-51
2021/08/29 09:52:02;;;;;;;;;9.50;7.00;;;;;22.12;47.13;101682.72;5057329;28;45416;-47
2021/08/29 09:54:36;;;;;;;;;7.50;6.25;;;;;22.12;46.95;101683.56;5057260;28;45324;-47
2021/08/29 09:57:06;;;;;;;;;4.00;4.00;;;;;22.12;47.18;101680.94;5057125;28;45528;-48
2021/08/29 09:59:45;;;;;;;;;4.00;4.00;;;;;22.13;47.32;101684.44;5056767;28;45876;-50
2021/08/29 10:02:13;;;;;;;;;7.50;5.25;;;;;22.14;47.10;101688.78;5055540;28;45467;-47
2021/08/29 10:04:41;;;;;;;;;5.25;5.25;;;;;22.17;47.09;101688.63;5057293;28;45519;-48
2021/08/29 10:07:10;;;;;;;;;5.00;4.00;;;;;22.17;47.10;101689.50;5056684;28;45555;-49
2021/08/29 10:09:36;;;;;;;;;4.25;3.25;;;;;22.19;46.94;101685.00;5056935;28;45806;-47
2021/08/29 10:12:03;;;;;;;;;6.75;5.50;;;;;22.20;46.89;101681.44;5056826;28;45316;-49
2021/08/29 10:14:30;;;;;;;;;7.50;5.00;;;;;22.21;47.12;101677.00;5057237;28;45657;-48
2021/08/29 10:16:57;;;;;;;;;4.50;3.00;;;;;22.22;47.06;101684.81;5056722;28;45419;-48
2021/08/29 10:19:23;;;;;;;;;5.25;5.25;;;;;22.21;46.99;101685.75;5056913;28;45333;-49
2021/08/29 10:21:50;;;;;;;;;5.50;4.50;;;;;22.24;47.06;101682.13;5057140;28;45401;-53
2021/08/29 10:24:16;;;;;;;;;7.50;6.00;;;;;22.25;47.05;101683.84;5057267;28;45562;-54
2021/08/29 10:26:44;;;;;;;;;5.25;4.75;;;;;22.26;47.20;101689.97;5056352;28;45714;-52
2021/08/29 10:29:17;;;;;;;;;6.00;5.25;;;;;22.27;46.67;101681.13;5056470;28;45304;-53
2021/08/29 10:32:10;;;;;;;;;4.75;4.50;;;;;22.28;47.02;101683.66;5056372;28;45397;-53
2021/08/29 10:34:37;;;;;;;;;7.50;7.00;;;;;22.30;47.07;101686.25;5056881;28;45428;-53
2021/08/29 10:37:03;;;;;;;;;9.00;6.00;;;;;22.29;47.01;101680.09;5056557;28;46070;-52
2021/08/29 10:39:29;;;;;;;;;5.25;5.25;;;;;22.27;46.93;101681.13;5038284;28;45402;-53
2021/08/29 10:41:54;;;;;;;;;8.25;7.25;;;;;22.26;47.04;101682.03;5056700;28;45238;-48
2021/08/29 10:44:21;;;;;;;;;7.00;7.00;;;;;22.23;47.35;101681.25;5056972;28;45613;-51
2021/08/29 10:46:48;;;;;;;;;10.50;8.75;;;;;22.21;47.05;101680.47;5056582;28;46606;-54
2021/08/29 10:49:17;;;;;;;;;7.25;7.00;;;;;22.18;47.34;101677.13;5056436;28;45292;-54
2021/08/29 10:51:45;;;;;;;;;9.50;8.50;;;;;22.16;47.31;101674.56;5056771;28;45427;-53
2021/08/29 10:54:13;;;;;;;;;10.25;9.00;;;;;22.14;46.68;101668.50;5056565;28;45489;-55
2021/08/29 10:56:41;;;;;;;;;5.25;4.75;;;;;22.15;47.01;101669.38;5056382;28;46376;-54
2021/08/29 10:59:09;;;;;;;;;8.00;8.00;;;;;22.14;47.40;101673.78;5056306;28;45899;-55
2021/08/29 11:01:34;;;;;;;;;8.00;8.00;;;;;22.13;47.20;101661.53;5056612;28;45246;-51
2021/08/29 11:04:25;;;;;;;;;5.75;5.75;;;;;22.13;47.08;101655.41;5038282;28;45484;-54
2021/08/29 11:06:57;;;;;;;;;7.75;7.00;;;;;22.14;47.29;101660.59;5056474;28;46050;-49
2021/08/29 11:09:31;;;;;;;;;7.75;7.00;;;;;22.15;47.31;101662.31;5056176;28;45799;-48
2021/08/29 11:11:58;;;;;;;;;7.75;7.75;;;;;22.14;47.08;101655.31;5056199;28;45209;-49
2021/08/29 11:14:40;;;;;;;;;6.00;6.00;;;;;22.13;47.18;101652.75;5056391;28;45455;-46
2021/08/29 11:17:09;;;;;;;;;9.00;8.00;;;;;22.15;47.05;101657.03;5056045;28;45563;-49
2021/08/29 11:19:39;;;;;;;;;10.00;8.00;;;;;22.16;47.28;101650.81;5055916;28;45367;-51
2021/08/29 11:22:06;;;;;;;;;8.25;7.25;;;;;22.16;47.04;101648.19;5056057;28;45238;-50
2021/08/29 11:25:10;;;;;;;;;6.00;6.00;;;;;22.15;46.89;101643.81;5038033;28;45571;-50